Time;durP1;ratioP1;P1;durP2;ratioP2;P2;SDS_P1;SDS_P2;PMS_P1;PMS_P2;Temp;Humidity;BMP_temperature;BMP_pressure;BME280_temperature;BME280_humidity;BME280_pressure;Samples;Min_cycle;Max_cycle;Signal;HPM_P1;HPM_P2
2023/01/16 00:01:22;;;;;;;1.40;0.70;;;8.40;99.90;;;;;;5094617;28;20272;-76
2023/01/16 00:03:48;;;;;;;2.13;0.50;;;8.40;99.90;;;;;;5090192;28;20207;-82
2023/01/16 00:06:14;;;;;;;2.03;0.70;;;8.30;99.90;;;;;;5072526;28;20225;-82
2023/01/16 00:08:41;;;;;;;1.98;0.60;;;8.40;99.90;;;;;;5090100;28;20271;-84
2023/01/16 00:11:07;;;;;;;2.45;0.70;;;8.40;99.90;;;;;;5088659;28;20249;-84
2023/01/16 00:13:33;;;;;;;2.17;0.60;;;8.30;99.90;;;;;;5055468;28;20199;-84
2023/01/16 00:15:59;;;;;;;1.47;0.50;;;8.30;99.90;;;;;;5072387;28;20190;-84
2023/01/16 00:18:24;;;;;;;1.70;1.10;;;8.30;99.90;;;;;;5088950;28;20745;-84
2023/01/16 00:20:50;;;;;;;1.37;0.50;;;8.20;99.90;;;;;;5089274;28;20276;-84
2023/01/16 00:23:16;;;;;;;1.40;0.50;;;8.10;99.90;;;;;;5089774;28;20178;-84
2023/01/16 00:25:43;;;;;;;1.77;0.53;;;8.10;99.90;;;;;;5071827;28;20183;-83
2023/01/16 00:28:09;;;;;;;2.88;0.60;;;8.10;99.90;;;;;;5072120;28;20563;-83
2023/01/16 00:30:36;;;;;;;3.50;0.60;;;8.10;99.90;;;;;;5089527;28;20662;-83
2023/01/16 00:33:02;;;;;;;1.83;0.60;;;8.10;99.90;;;;;;5071663;28;20221;-84
2023/01/16 00:35:28;;;;;;;2.67;0.65;;;8.10;99.90;;;;;;5088628;28;20191;-84
2023/01/16 00:37:54;;;;;;;2.87;0.67;;;8.10;99.90;;;;;;5090875;28;20198;-83
2023/01/16 00:40:20;;;;;;;1.63;0.50;;;8.10;99.90;;;;;;5093259;28;20904;-83
2023/01/16 00:42:47;;;;;;;1.10;0.50;;;8.10;99.90;;;;;;5093904;28;20703;-83
2023/01/16 00:45:12;;;;;;;1.97;0.60;;;8.10;99.90;;;;;;5071823;28;20171;-82
2023/01/16 00:47:38;;;;;;;2.77;0.97;;;8.10;99.90;;;;;;5072222;28;20207;-82
2023/01/16 00:50:04;;;;;;;1.33;0.50;;;8.10;99.90;;;;;;5071519;28;20172;-82
2023/01/16 00:52:30;;;;;;;1.50;0.50;;;8.10;99.90;;;;;;5088512;28;20199;-83
2023/01/16 00:54:56;;;;;;;2.10;0.60;;;8.20;99.90;;;;;;5071663;28;20542;-83
2023/01/16 00:57:22;;;;;;;2.27;0.57;;;8.20;99.90;;;;;;5088569;28;20582;-83
2023/01/16 00:59:48;;;;;;;1.40;0.50;;;8.20;99.90;;;;;;5071936;28;20532;-83
2023/01/16 01:02:13;;;;;;;1.30;0.50;;;8.30;99.90;;;;;;5088324;28;20597;-83
2023/01/16 01:04:40;;;;;;;1.10;0.60;;;8.30;99.90;;;;;;5090341;28;20681;-84
2023/01/16 01:07:05;;;;;;;1.65;0.60;;;8.40;99.90;;;;;;5090110;28;20196;-82
2023/01/16 01:09:31;;;;;;;1.10;0.50;;;8.40;99.90;;;;;;5089583;28;20229;-76
2023/01/16 01:11:58;;;;;;;1.37;0.50;;;8.50;99.90;;;;;;5088386;28;20286;-76
2023/01/16 01:14:24;;;;;;;2.80;0.52;;;8.40;99.90;;;;;;5090183;28;21043;-83
2023/01/16 01:16:50;;;;;;;3.65;0.70;;;8.40;99.90;;;;;;5076552;28;20208;-83
2023/01/16 01:19:16;;;;;;;2.30;0.60;;;8.40;99.90;;;;;;5072833;28;20184;-83
2023/01/16 01:21:42;;;;;;;1.80;0.60;;;8.40;99.90;;;;;;5088777;28;20614;-84
2023/01/16 01:24:08;;;;;;;1.47;0.47;;;8.30;99.90;;;;;;5055177;28;20569;-83
2023/01/16 01:26:34;;;;;;;1.85;0.50;;;8.30;99.90;;;;;;5089900;28;20179;-83
2023/01/16 01:29:00;;;;;;;1.37;0.50;;;8.20;99.90;;;;;;5093438;22;20240;-76
2023/01/16 01:31:27;;;;;;;1.20;0.52;;;8.10;99.90;;;;;;5083687;28;20825;-75
2023/01/16 01:33:53;;;;;;;1.95;0.50;;;8.10;99.90;;;;;;5083423;28;20207;-76
2023/01/16 01:36:18;;;;;;;1.07;0.47;;;8.10;99.90;;;;;;5075802;28;20174;-76
2023/01/16 01:38:46;;;;;;;1.30;0.50;;;8.00;99.90;;;;;;5094368;28;20187;-76
2023/01/16 01:41:16;;;;;;;1.10;0.40;;;8.00;99.90;;;;;;5076235;28;20570;-75
2023/01/16 01:43:47;;;;;;;1.15;0.43;;;8.00;99.90;;;;;;5076914;28;20720;-76
2023/01/16 01:46:24;;;;;;;2.30;0.60;;;8.00;99.90;;;;;;5094662;28;20175;-75
2023/01/16 01:48:57;;;;;;;1.10;0.50;;;8.00;99.90;;;;;;5094098;28;20191;-76
2023/01/16 01:51:34;;;;;;;1.40;0.60;;;8.00;99.90;;;;;;5042721;28;20176;-75
2023/01/16 01:54:07;;;;;;;2.72;0.57;;;8.00;99.90;;;;;;5076307;28;20225;-75
2023/01/16 01:56:39;;;;;;;1.20;0.60;;;8.00;99.90;;;;;;5094892;28;20480;-76
2023/01/16 01:59:19;;;;;;;2.08;0.47;;;8.00;99.90;;;;;;5075693;28;20266;-76
2023/01/16 02:01:44;;;;;;;2.97;0.60;;;8.00;99.90;;;;;;5076737;28;20183;-76
2023/01/16 02:04:16;;;;;;;1.57;0.50;;;8.10;99.90;;;;;;5079327;28;20168;-76
2023/01/16 02:06:57;;;;;;;4.05;0.60;;;8.10;99.90;;;;;;5077656;28;20585;-76
2023/01/16 02:09:25;;;;;;;1.75;0.70;;;8.00;99.90;;;;;;5076450;28;20704;-76
2023/01/16 02:12:00;;;;;;;1.40;0.50;;;8.00;99.90;;;;;;5094527;28;20168;-75
2023/01/16 02:14:30;;;;;;;2.20;0.63;;;8.00;99.90;;;;;;5076946;28;20361;-75
2023/01/16 02:20:20;;;;;;;1.40;0.60;;;7.90;99.90;;;;;;5076139;28;20183;-75
2023/01/16 02:23:10;;;;;;;1.38;0.40;;;7.90;99.90;;;;;;5093728;28;20164;-76
2023/01/16 02:25:55;;;;;;;1.35;0.50;;;7.80;99.90;;;;;;5058187;28;20206;-75
2023/01/16 02:28:45;;;;;;;1.10;0.40;;;7.80;99.90;;;;;;5060953;28;20230;-76
2023/01/16 02:31:49;;;;;;;1.35;0.50;;;7.80;99.90;;;;;;5078310;28;20568;-76
2023/01/16 02:34:34;;;;;;;2.70;0.50;;;7.70;99.90;;;;;;5080888;28;20199;-75
2023/01/16 02:37:15;;;;;;;1.38;0.73;;;7.60;99.90;;;;;;5079976;28;20164;-76
2023/01/16 02:39:49;;;;;;;1.20;0.40;;;7.60;99.90;;;;;;5099179;28;20210;-76
2023/01/16 02:42:21;;;;;;;1.20;0.50;;;7.60;99.90;;;;;;5061641;28;20167;-76
2023/01/16 02:44:53;;;;;;;1.15;0.45;;;7.50;99.90;;;;;;5094648;28;20173;-76
2023/01/16 02:47:27;;;;;;;1.20;0.50;;;7.60;99.90;;;;;;5058442;28;20172;-76
2023/01/16 02:50:02;;;;;;;1.00;0.40;;;7.60;99.90;;;;;;5075518;28;20569;-76
2023/01/16 02:52:43;;;;;;;1.10;0.40;;;7.60;99.90;;;;;;5075405;28;20213;-76
2023/01/16 02:55:21;;;;;;;1.50;0.40;;;7.60;99.90;;;;;;5058938;28;20168;-75
2023/01/16 02:57:53;;;;;;;1.40;0.50;;;7.60;99.90;;;;;;5073815;28;20223;-76
2023/01/16 03:00:20;;;;;;;1.60;0.75;;;7.60;99.90;;;;;;5093134;28;20159;-75
2023/01/16 03:02:46;;;;;;;1.25;0.45;;;7.60;99.90;;;;;;5075355;28;20176;-75
2023/01/16 03:05:12;;;;;;;1.10;0.40;;;7.60;99.90;;;;;;5075585;28;20735;-75
2023/01/16 03:07:46;;;;;;;1.10;0.40;;;7.60;99.90;;;;;;5075376;28;20179;-75
2023/01/16 03:10:28;;;;;;;4.60;0.98;;;7.70;99.90;;;;;;5074739;28;20574;-75
2023/01/16 03:13:16;;;;;;;2.47;0.50;;;7.70;99.90;;;;;;5092872;28;20234;-76
2023/01/16 03:15:47;;;;;;;1.30;0.50;;;7.70;99.90;;;;;;5059943;28;20167;-76
2023/01/16 03:18:40;;;;;;;1.42;0.50;;;7.70;99.90;;;;;;5097215;28;20191;-76
2023/01/16 03:21:15;;;;;;;1.40;0.47;;;7.60;99.90;;;;;;5074461;28;20164;-75
2023/01/16 03:23:54;;;;;;;1.45;0.40;;;7.60;99.90;;;;;;5093811;28;20159;-76
2023/01/16 03:26:26;;;;;;;1.20;0.60;;;7.50;99.90;;;;;;5075626;28;20179;-76
2023/01/16 03:29:17;;;;;;;2.97;0.80;;;7.50;99.90;;;;;;5074422;28;20203;-76
2023/01/16 03:32:05;;;;;;;2.50;0.70;;;7.50;99.90;;;;;;5073310;28;20628;-76
2023/01/16 03:34:53;;;;;;;1.60;0.55;;;7.40;99.90;;;;;;5047352;28;20195;-76
2023/01/16 03:37:27;;;;;;;2.88;0.70;;;7.40;99.90;;;;;;5074501;28;20190;-76
2023/01/16 03:39:59;;;;;;;1.27;0.52;;;7.30;99.90;;;;;;5091274;28;20263;-76
2023/01/16 03:42:31;;;;;;;2.05;0.80;;;7.30;99.90;;;;;;5073782;28;20171;-76
2023/01/16 03:45:03;;;;;;;2.63;0.60;;;7.30;99.90;;;;;;5057087;28;20210;-76
2023/01/16 03:47:39;;;;;;;1.65;0.60;;;7.30;99.90;;;;;;5073580;28;20176;-75
2023/01/16 03:50:10;;;;;;;1.30;0.60;;;7.30;99.90;;;;;;5091633;28;20171;-75
2023/01/16 03:52:41;;;;;;;2.40;0.73;;;7.30;99.90;;;;;;5068400;28;20194;-76
2023/01/16 03:55:19;;;;;;;1.80;0.80;;;7.30;99.90;;;;;;5099605;28;20578;-76
2023/01/16 03:57:53;;;;;;;3.00;0.60;;;7.30;99.90;;;;;;5092184;28;20198;-75
2023/01/16 04:00:20;;;;;;;2.35;0.60;;;7.30;99.90;;;;;;5091675;28;20167;-76
2023/01/16 04:02:58;;;;;;;1.83;0.60;;;7.40;99.90;;;;;;5092232;28;20261;-76
2023/01/16 04:05:31;;;;;;;1.73;0.60;;;7.40;99.90;;;;;;5075030;28;20190;-75
2023/01/16 04:08:01;;;;;;;3.53;0.70;;;7.40;99.90;;;;;;5074389;28;20261;-76
2023/01/16 04:10:37;;;;;;;3.10;0.88;;;7.40;99.90;;;;;;5074025;28;20248;-75
2023/01/16 04:13:10;;;;;;;2.95;0.70;;;7.40;99.90;;;;;;5059978;28;20210;-76
2023/01/16 04:15:42;;;;;;;1.50;0.60;;;7.50;99.90;;;;;;5060535;28;20172;-76
2023/01/16 04:18:08;;;;;;;1.20;0.50;;;7.40;99.90;;;;;;5075688;28;20275;-75
2023/01/16 04:20:35;;;;;;;1.90;0.60;;;7.40;99.90;;;;;;5074398;28;20195;-75
2023/01/16 04:23:01;;;;;;;2.40;0.70;;;7.50;99.90;;;;;;5094612;28;20569;-75
2023/01/16 04:25:27;;;;;;;2.20;0.60;;;7.40;99.90;;;;;;5061114;28;20215;-75
2023/01/16 04:27:52;;;;;;;2.73;0.60;;;7.50;99.90;;;;;;5095442;28;20263;-75
2023/01/16 04:30:18;;;;;;;2.53;0.50;;;7.40;99.90;;;;;;5073403;28;20179;-75
2023/01/16 04:32:44;;;;;;;2.27;0.87;;;7.40;99.90;;;;;;5093110;28;20199;-75
2023/01/16 04:35:10;;;;;;;2.43;0.60;;;7.40;99.90;;;;;;5072910;28;20190;-75
2023/01/16 04:37:36;;;;;;;1.90;0.63;;;7.40;99.90;;;;;;5090788;28;20168;-75
2023/01/16 04:40:02;;;;;;;2.23;0.70;;;7.40;99.90;;;;;;5072273;28;20186;-75
2023/01/16 04:42:28;;;;;;;3.40;0.70;;;7.30;99.90;;;;;;5093037;28;20263;-75
2023/01/16 04:44:53;;;;;;;2.63;0.57;;;7.30;99.90;;;;;;5094076;28;20223;-75
2023/01/16 04:47:19;;;;;;;4.07;0.70;;;7.30;99.90;;;;;;5093541;28;20569;-75
2023/01/16 04:49:45;;;;;;;1.63;0.80;;;7.30;99.90;;;;;;5075457;28;20227;-76
2023/01/16 04:52:14;;;;;;;2.70;0.70;;;7.30;99.90;;;;;;5073312;28;20183;-75
2023/01/16 04:54:39;;;;;;;2.25;0.60;;;7.30;99.90;;;;;;5090506;28;20168;-75
2023/01/16 04:57:05;;;;;;;2.47;0.77;;;7.30;99.90;;;;;;5071953;28;20175;-75
2023/01/16 04:59:31;;;;;;;1.50;0.60;;;7.30;99.90;;;;;;5090646;28;20240;-76
2023/01/16 05:01:56;;;;;;;1.93;0.60;;;7.30;99.90;;;;;;5074747;28;20348;-76
2023/01/16 05:04:22;;;;;;;1.63;0.70;;;7.40;99.90;;;;;;5072808;28;20176;-76
2023/01/16 05:06:48;;;;;;;1.93;0.60;;;7.40;99.90;;;;;;5054875;28;20190;-75
2023/01/16 05:09:13;;;;;;;5.00;0.60;;;7.40;99.90;;;;;;5093116;28;20194;-75
2023/01/16 05:11:39;;;;;;;2.43;0.60;;;7.50;99.90;;;;;;5089318;28;20579;-76
2023/01/16 05:14:07;;;;;;;1.60;0.50;;;7.50;99.90;;;;;;5091284;28;20268;-77
2023/01/16 05:16:42;;;;;;;2.90;0.80;;;7.50;99.90;;;;;;5091575;28;20171;-75
2023/01/16 05:19:08;;;;;;;4.55;0.80;;;7.50;99.90;;;;;;5072008;28;20190;-76
2023/01/16 05:21:34;;;;;;;2.63;0.70;;;7.60;99.90;;;;;;5071851;28;20244;-75
2023/01/16 05:24:00;;;;;;;1.20;0.50;;;7.60;99.90;;;;;;5072200;28;20180;-75
2023/01/16 05:26:27;;;;;;;3.28;0.73;;;7.70;99.90;;;;;;5089110;28;20168;-74
2023/01/16 05:28:52;;;;;;;1.50;0.57;;;7.70;99.90;;;;;;5089995;28;20700;-75
2023/01/16 05:31:18;;;;;;;1.23;0.60;;;7.70;99.90;;;;;;5089639;28;20209;-76
2023/01/16 05:33:44;;;;;;;2.43;0.60;;;7.70;99.90;;;;;;5091750;28;20659;-76
2023/01/16 05:36:10;;;;;;;1.50;0.60;;;7.70;99.90;;;;;;5056726;28;20570;-75
2023/01/16 05:38:35;;;;;;;3.00;0.60;;;7.80;99.90;;;;;;5073421;28;20192;-75
2023/01/16 05:41:01;;;;;;;1.60;0.57;;;7.80;99.90;;;;;;5056265;28;20631;-75
2023/01/16 05:43:27;;;;;;;2.93;0.57;;;7.80;99.90;;;;;;5057703;28;20184;-75
2023/01/16 05:45:52;;;;;;;2.57;0.70;;;7.80;99.90;;;;;;5078292;28;20186;-75
2023/01/16 05:48:18;;;;;;;1.63;0.50;;;7.80;99.90;;;;;;5092356;28;20544;-75
2023/01/16 05:50:44;;;;;;;2.90;0.60;;;7.70;99.90;;;;;;5056825;28;20167;-75
2023/01/16 05:53:11;;;;;;;2.35;0.60;;;7.70;99.90;;;;;;5088897;28;20200;-76
2023/01/16 05:55:45;;;;;;;3.53;0.60;;;7.70;99.90;;;;;;5089511;28;20160;-75
2023/01/16 05:58:14;;;;;;;1.83;0.50;;;7.70;99.90;;;;;;5054455;28;20341;-75
2023/01/16 06:00:40;;;;;;;2.75;0.57;;;7.80;99.90;;;;;;5072997;28;20182;-77
2023/01/16 06:03:06;;;;;;;4.55;0.60;;;7.80;99.90;;;;;;5073668;28;20674;-77
2023/01/16 06:05:33;;;;;;;1.58;0.60;;;7.80;99.90;;;;;;5057582;28;20508;-76
2023/01/16 06:07:59;;;;;;;3.15;0.70;;;7.80;99.90;;;;;;5092984;28;20195;-75
2023/01/16 06:10:26;;;;;;;2.33;0.60;;;7.80;99.90;;;;;;5093842;28;20228;-77
2023/01/16 06:12:52;;;;;;;1.20;0.52;;;7.80;99.90;;;;;;5076037;28;20220;-75
2023/01/16 06:15:18;;;;;;;3.78;0.80;;;7.80;99.90;;;;;;5074381;28;20536;-75
2023/01/16 06:17:45;;;;;;;1.80;0.60;;;7.90;99.90;;;;;;5073488;28;20268;-75
2023/01/16 06:20:11;;;;;;;1.98;0.65;;;7.90;99.90;;;;;;5076106;28;20174;-75
2023/01/16 06:22:37;;;;;;;1.83;0.50;;;7.90;99.90;;;;;;5096183;28;20186;-76
2023/01/16 06:25:03;;;;;;;2.20;0.60;;;8.00;99.90;;;;;;5064645;28;20175;-75
2023/01/16 06:27:29;;;;;;;4.30;0.77;;;8.10;99.90;;;;;;5059476;28;20180;-75
2023/01/16 06:29:55;;;;;;;1.85;0.60;;;8.10;99.90;;;;;;5094624;28;20255;-75
2023/01/16 06:32:21;;;;;;;2.67;0.60;;;8.10;99.90;;;;;;5094528;28;20160;-75
2023/01/16 06:34:46;;;;;;;2.67;0.67;;;8.10;99.90;;;;;;5081738;28;20565;-75
2023/01/16 06:37:12;;;;;;;1.50;0.60;;;8.10;99.90;;;;;;5079261;28;20172;-75
2023/01/16 06:39:38;;;;;;;1.93;0.70;;;8.10;99.90;;;;;;5094599;28;20630;-75
2023/01/16 06:42:04;;;;;;;1.30;0.60;;;8.10;99.90;;;;;;5076411;28;20176;-76
2023/01/16 06:44:33;;;;;;;1.80;0.50;;;8.10;99.90;;;;;;5076788;28;20176;-76
2023/01/16 06:47:00;;;;;;;1.83;0.70;;;8.10;99.90;;;;;;5096619;28;20175;-75
2023/01/16 06:49:26;;;;;;;1.63;0.60;;;8.10;99.90;;;;;;5086729;28;20201;-74
2023/01/16 06:51:52;;;;;;;2.23;0.80;;;8.10;99.90;;;;;;5083361;28;20270;-75
2023/01/16 06:54:18;;;;;;;2.67;0.70;;;8.00;99.90;;;;;;5080569;28;20199;-75
2023/01/16 06:56:44;;;;;;;3.00;0.70;;;7.90;99.90;;;;;;5082721;28;20612;-75
2023/01/16 06:59:10;;;;;;;1.60;0.70;;;7.90;99.90;;;;;;5092498;28;20210;-75
2023/01/16 07:01:35;;;;;;;2.57;0.80;;;7.90;99.90;;;;;;5079317;28;20176;-76
2023/01/16 07:04:01;;;;;;;2.03;0.80;;;7.90;99.90;;;;;;5101120;28;20175;-77
2023/01/16 07:06:27;;;;;;;2.27;0.80;;;7.90;99.90;;;;;;5103657;28;20230;-76
2023/01/16 07:08:52;;;;;;;1.70;0.60;;;8.00;99.90;;;;;;5084198;28;20625;-76
2023/01/16 07:11:19;;;;;;;1.40;0.80;;;7.90;99.90;;;;;;5083369;28;20721;-76
2023/01/16 07:13:45;;;;;;;3.45;0.80;;;7.90;99.90;;;;;;5099224;28;20670;-75
2023/01/16 07:24:33;;;;;;;3.45;1.00;;;8.00;99.90;;;;;;5097223;28;20172;-75
2023/01/16 07:27:02;;;;;;;2.60;0.98;;;7.90;99.90;;;;;;5079692;28;20167;-75
2023/01/16 07:29:31;;;;;;;3.15;0.77;;;7.90;99.90;;;;;;5096557;28;20203;-75
2023/01/16 07:31:58;;;;;;;2.95;0.75;;;7.90;99.90;;;;;;5097886;28;20578;-76
2023/01/16 07:34:24;;;;;;;1.85;0.80;;;7.90;99.90;;;;;;5061217;28;20286;-75
2023/01/16 07:36:50;;;;;;;2.40;1.17;;;7.90;99.90;;;;;;5076715;28;20715;-75
2023/01/16 07:39:15;;;;;;;2.47;1.10;;;7.90;99.90;;;;;;5077558;28;20609;-76
2023/01/16 07:41:41;;;;;;;4.47;0.83;;;8.00;99.90;;;;;;5058844;28;20667;-76
2023/01/16 07:44:07;;;;;;;2.03;1.00;;;7.90;99.90;;;;;;5074757;28;20197;-75
2023/01/16 07:46:33;;;;;;;3.78;0.90;;;8.00;99.90;;;;;;5092057;28;20175;-76
2023/01/16 07:48:59;;;;;;;1.60;0.80;;;7.90;99.90;;;;;;5073415;28;20547;-76
2023/01/16 07:51:25;;;;;;;3.20;1.00;;;8.00;99.90;;;;;;5074132;28;20187;-76
2023/01/16 07:53:50;;;;;;;3.40;0.80;;;7.90;99.90;;;;;;5073003;28;20244;-76
2023/01/16 07:56:16;;;;;;;2.40;0.73;;;7.90;99.90;;;;;;5072826;28;20379;-76
2023/01/16 07:58:43;;;;;;;1.90;0.80;;;7.90;99.90;;;;;;5090554;28;20274;-76
2023/01/16 08:01:09;;;;;;;4.60;1.40;;;7.80;99.90;;;;;;5071628;28;20175;-76
2023/01/16 08:03:36;;;;;;;7.90;0.80;;;7.80;99.90;;;;;;5090786;28;20176;-76
2023/01/16 08:06:02;;;;;;;7.35;1.10;;;7.70;99.90;;;;;;5077217;28;20171;-75
2023/01/16 08:08:30;;;;;;;2.85;0.80;;;7.60;99.90;;;;;;5091072;28;20183;-77
2023/01/16 08:10:57;;;;;;;3.30;0.80;;;7.60;99.90;;;;;;5090788;28;20542;-76
2023/01/16 08:13:23;;;;;;;3.83;0.70;;;7.50;99.90;;;;;;5092598;28;20238;-76
2023/01/16 08:15:50;;;;;;;2.13;0.75;;;7.50;99.90;;;;;;5061561;28;20168;-75
2023/01/16 08:18:17;;;;;;;3.60;0.73;;;7.50;99.90;;;;;;5097150;28;20234;-76
2023/01/16 08:20:44;;;;;;;6.88;0.85;;;7.50;99.90;;;;;;5079778;28;20175;-76
2023/01/16 08:23:11;;;;;;;3.90;0.70;;;7.40;99.90;;;;;;5094481;28;20266;-76
2023/01/16 08:25:37;;;;;;;5.18;1.10;;;7.60;99.90;;;;;;5096113;28;20215;-76
2023/01/16 08:28:04;;;;;;;2.20;0.73;;;7.60;99.90;;;;;;5093020;28;20187;-75
2023/01/16 08:30:30;;;;;;;3.90;1.00;;;7.60;99.90;;;;;;5093662;28;20190;-76
2023/01/16 08:33:00;;;;;;;2.33;0.80;;;7.50;99.90;;;;;;5077534;28;20199;-76
2023/01/16 08:35:27;;;;;;;2.53;0.85;;;7.60;99.90;;;;;;5085545;28;20232;-76
2023/01/16 08:37:53;;;;;;;2.95;0.80;;;7.60;99.90;;;;;;5060007;28;20202;-76
2023/01/16 08:40:19;;;;;;;3.60;0.80;;;7.50;99.90;;;;;;5075499;28;20225;-76
2023/01/16 08:51:24;;;;;;;4.82;0.70;;;7.60;99.90;;;;;;5092831;28;20181;-76
2023/01/16 08:53:56;;;;;;;3.55;1.00;;;7.60;99.90;;;;;;5094927;28;20191;-76
2023/01/16 08:56:23;;;;;;;2.17;0.70;;;7.60;99.90;;;;;;5091955;28;20184;-76
2023/01/16 08:58:48;;;;;;;4.15;0.70;;;7.50;99.90;;;;;;5101107;28;20242;-76
2023/01/16 09:01:15;;;;;;;1.77;0.70;;;7.60;99.90;;;;;;5091281;28;20536;-76
2023/01/16 09:03:41;;;;;;;3.42;1.45;;;7.40;99.90;;;;;;5056932;28;20593;-76
2023/01/16 09:06:07;;;;;;;2.80;0.60;;;7.50;99.90;;;;;;5090587;28;20171;-76
2023/01/16 09:08:33;;;;;;;1.87;0.77;;;7.50;99.90;;;;;;5073544;28;20237;-76
2023/01/16 09:13:49;;;;;;;1.52;0.60;;;7.40;99.90;;;;;;5089729;28;20207;-76
2023/01/16 09:16:21;;;;;;;2.50;0.80;;;7.50;99.90;;;;;;5084164;28;20180;-76
2023/01/16 09:18:46;;;;;;;1.23;0.60;;;7.50;99.90;;;;;;5091105;28;20294;-76
2023/01/16 09:21:13;;;;;;;2.50;0.83;;;7.40;99.90;;;;;;5090320;28;20263;-74
2023/01/16 09:23:38;;;;;;;1.70;0.70;;;7.40;99.90;;;;;;5071230;28;20597;-74
2023/01/16 09:26:04;;;;;;;2.03;0.73;;;7.50;99.90;;;;;;5082689;28;20191;-75
2023/01/16 09:28:30;;;;;;;2.33;0.60;;;7.50;99.90;;;;;;5071057;28;20199;-74
2023/01/16 09:30:56;;;;;;;2.33;0.70;;;7.30;99.90;;;;;;5071821;28;21178;-75
2023/01/16 09:33:21;;;;;;;5.63;0.83;;;7.40;99.90;;;;;;5092323;28;20212;-75
2023/01/16 09:35:47;;;;;;;1.40;0.50;;;7.40;99.90;;;;;;5102788;28;20168;-76
2023/01/16 09:38:13;;;;;;;1.43;0.60;;;7.40;99.90;;;;;;5106057;28;20195;-75
2023/01/16 09:40:39;;;;;;;2.27;0.70;;;7.50;99.90;;;;;;5087438;28;20174;-75
2023/01/16 09:46:13;;;;;;;2.40;0.70;;;7.60;99.90;;;;;;5056316;28;20753;-75
2023/01/16 09:48:47;;;;;;;2.10;0.60;;;7.50;99.90;;;;;;5079932;28;20239;-75
2023/01/16 09:51:24;;;;;;;2.05;0.60;;;7.60;99.90;;;;;;5057270;28;20207;-75
2023/01/16 09:59:41;;;;;;;1.95;0.70;;;7.60;99.90;;;;;;5061724;28;20185;-75
2023/01/16 10:02:17;;;;;;;1.63;0.50;;;7.60;99.90;;;;;;5060489;28;20219;-75
2023/01/16 10:04:45;;;;;;;1.98;0.60;;;7.50;99.90;;;;;;5058709;28;20199;-75
2023/01/16 10:07:33;;;;;;;2.67;0.70;;;7.50;99.90;;;;;;5046691;28;20172;-76
2023/01/16 10:10:06;;;;;;;2.15;0.68;;;7.50;99.90;;;;;;5093434;28;20186;-75
2023/01/16 10:12:35;;;;;;;2.63;0.70;;;7.60;99.90;;;;;;5077371;28;20199;-76
2023/01/16 10:15:15;;;;;;;1.40;0.70;;;7.60;99.90;;;;;;5061682;28;20465;-76
2023/01/16 10:17:59;;;;;;;1.30;0.55;;;7.50;99.90;;;;;;5096098;28;20168;-76
2023/01/16 10:20:52;;;;;;;1.83;0.50;;;7.70;99.90;;;;;;5078401;28;20176;-76
2023/01/16 10:23:38;;;;;;;2.00;0.60;;;7.70;99.90;;;;;;5077284;28;20259;-76
2023/01/16 10:26:09;;;;;;;1.25;0.50;;;7.90;99.90;;;;;;5057489;28;20271;-75
2023/01/16 10:28:56;;;;;;;1.40;0.60;;;7.80;99.90;;;;;;5073730;28;20315;-76
2023/01/16 10:31:42;;;;;;;1.35;0.50;;;7.90;99.90;;;;;;5057763;28;20191;-76
2023/01/16 10:34:16;;;;;;;1.35;0.50;;;7.90;99.90;;;;;;5077939;28;20200;-76
2023/01/16 10:36:48;;;;;;;1.88;0.60;;;7.90;99.90;;;;;;5077016;28;20164;-76
2023/01/16 10:39:18;;;;;;;1.42;0.70;;;7.90;99.90;;;;;;5086783;28;20191;-76
2023/01/16 10:50:27;;;;;;;1.73;0.50;;;7.90;99.90;;;;;;5100257;28;20184;-75
2023/01/16 10:52:53;;;;;;;1.27;0.60;;;7.90;99.90;;;;;;5078502;28;20221;-75
2023/01/16 10:55:19;;;;;;;1.45;0.60;;;7.80;99.90;;;;;;5078415;28;20167;-75
2023/01/16 10:58:10;;;;;;;1.70;0.70;;;7.70;99.90;;;;;;5098049;28;20244;-75
2023/01/16 11:00:41;;;;;;;1.40;0.60;;;7.80;99.90;;;;;;5075890;28;20182;-75
2023/01/16 11:03:43;;;;;;;4.85;0.70;;;7.90;99.90;;;;;;5076113;28;20709;-75
2023/01/16 11:06:13;;;;;;;1.85;0.70;;;7.80;99.90;;;;;;5033614;28;20520;-75
2023/01/16 11:08:43;;;;;;;1.75;0.80;;;7.90;99.90;;;;;;5076772;28;20200;-75
2023/01/16 11:19:30;;;;;;;1.70;0.70;;;8.00;99.90;;;;;;5094204;28;20222;-76
2023/01/16 11:22:01;;;;;;;3.42;1.17;;;8.10;99.90;;;;;;5075820;28;20241;-75
2023/01/16 11:24:35;;;;;;;2.35;0.80;;;8.10;99.90;;;;;;5098679;28;20183;-76
2023/01/16 11:27:06;;;;;;;1.60;0.85;;;8.20;99.90;;;;;;5093956;28;20508;-75
2023/01/16 11:29:39;;;;;;;2.25;0.80;;;8.40;99.90;;;;;;5085153;28;20219;-76
2023/01/16 11:32:12;;;;;;;5.00;1.17;;;8.40;99.90;;;;;;5088231;28;20588;-75
2023/01/16 11:34:44;;;;;;;1.75;0.80;;;8.50;99.90;;;;;;5099389;28;20545;-76
2023/01/16 11:37:15;;;;;;;2.00;0.60;;;8.60;99.90;;;;;;5080722;28;20277;-76
2023/01/16 11:39:47;;;;;;;2.95;0.60;;;8.70;99.90;;;;;;5098187;28;20192;-76
2023/01/16 11:47:53;;;;;;;1.20;0.50;;;8.60;99.90;;;;;;5093889;28;20544;-75
2023/01/16 11:50:32;;;;;;;1.10;0.50;;;8.70;99.90;;;;;;5093441;28;20163;-76
2023/01/16 11:52:58;;;;;;;2.53;0.60;;;8.90;99.90;;;;;;5059422;28;20692;-76
2023/01/16 11:55:41;;;;;;;1.30;0.60;;;8.90;99.90;;;;;;5074758;28;20175;-76
2023/01/16 11:58:17;;;;;;;1.20;0.50;;;8.80;99.90;;;;;;5096689;28;20198;-76
2023/01/16 12:00:57;;;;;;;1.50;0.93;;;8.80;99.90;;;;;;5041426;28;20186;-76
2023/01/16 12:03:41;;;;;;;1.80;0.70;;;8.80;99.90;;;;;;5063439;28;20176;-77
2023/01/16 12:06:23;;;;;;;1.88;0.65;;;8.70;99.90;;;;;;5078037;28;20175;-76
2023/01/16 12:09:03;;;;;;;2.13;0.55;;;8.70;99.90;;;;;;5061838;28;20188;-76
2023/01/16 12:11:29;;;;;;;1.30;0.70;;;8.60;99.90;;;;;;5095287;28;20164;-76
2023/01/16 12:14:18;;;;;;;1.43;0.70;;;8.60;99.90;;;;;;5078720;28;20325;-76
2023/01/16 12:17:02;;;;;;;1.70;0.60;;;8.40;99.90;;;;;;5077192;28;20196;-75
2023/01/16 12:19:28;;;;;;;1.55;0.52;;;8.40;99.90;;;;;;5095220;28;20653;-75
2023/01/16 12:22:09;;;;;;;1.50;0.50;;;8.40;99.90;;;;;;5094828;28;20190;-75
2023/01/16 12:24:53;;;;;;;1.42;0.60;;;8.30;99.90;;;;;;5093027;28;20594;-76
2023/01/16 12:27:32;;;;;;;2.92;0.70;;;8.30;99.90;;;;;;5092831;28;20174;-75
2023/01/16 12:30:24;;;;;;;1.50;0.60;;;8.20;99.90;;;;;;5074406;28;20191;-77
2023/01/16 12:32:58;;;;;;;4.30;0.60;;;8.10;99.90;;;;;;5093667;28;20199;-76
2023/01/16 12:36:06;;;;;;;1.73;0.60;;;8.10;99.90;;;;;;5080377;28;20175;-75
2023/01/16 12:38:56;;;;;;;1.95;0.70;;;8.00;99.90;;;;;;5078297;28;20282;-76
2023/01/16 12:44:31;;;;;;;1.95;0.60;;;8.00;99.90;;;;;;5100472;28;20235;-76
2023/01/16 12:47:15;;;;;;;1.50;0.60;;;8.10;99.90;;;;;;5078624;28;20170;-76
2023/01/16 12:50:08;;;;;;;6.35;0.80;;;8.10;99.90;;;;;;5064471;28;20199;-76
2023/01/16 12:52:34;;;;;;;1.30;0.60;;;8.10;99.90;;;;;;5077214;28;20531;-76
2023/01/16 12:55:15;;;;;;;1.63;0.70;;;8.10;99.90;;;;;;5074595;28;20251;-75
2023/01/16 12:58:08;;;;;;;1.70;0.50;;;8.00;99.90;;;;;;5075083;28;20175;-76
2023/01/16 13:00:44;;;;;;;1.77;0.70;;;8.00;99.90;;;;;;5078192;28;20183;-76
2023/01/16 13:03:17;;;;;;;1.80;0.55;;;7.90;99.90;;;;;;5078560;28;20207;-76
2023/01/16 13:05:44;;;;;;;2.88;0.70;;;8.10;99.90;;;;;;5078562;28;20506;-77
2023/01/16 13:08:17;;;;;;;1.20;0.55;;;8.10;99.90;;;;;;5075127;28;20262;-76
2023/01/16 13:13:47;;;;;;;2.05;0.93;;;8.10;99.90;;;;;;5061692;28;20694;-76
2023/01/16 13:16:18;;;;;;;2.10;0.90;;;8.20;99.90;;;;;;5073337;28;20203;-76
2023/01/16 13:18:51;;;;;;;1.38;0.60;;;8.00;99.90;;;;;;5053389;28;20192;-76
2023/01/16 13:21:26;;;;;;;2.30;1.13;;;8.10;99.90;;;;;;5070368;28;20685;-76
2023/01/16 13:24:08;;;;;;;1.95;0.80;;;8.10;99.90;;;;;;5071095;28;20225;-76
2023/01/16 13:26:34;;;;;;;2.17;0.60;;;8.10;99.90;;;;;;5055620;28;20165;-75
2023/01/16 13:29:06;;;;;;;2.00;0.70;;;8.20;99.90;;;;;;5071119;28;20206;-74
2023/01/16 13:31:56;;;;;;;1.90;0.70;;;8.20;99.90;;;;;;5055307;28;20175;-75
2023/01/16 13:34:46;;;;;;;1.20;0.50;;;8.30;99.90;;;;;;5070171;28;20246;-75
2023/01/16 13:37:33;;;;;;;1.30;0.60;;;8.20;99.90;;;;;;5072446;28;20274;-75
2023/01/16 13:39:59;;;;;;;1.83;0.50;;;8.10;99.90;;;;;;5073556;28;20203;-75
2023/01/16 13:42:26;;;;;;;1.60;0.60;;;8.20;99.90;;;;;;5039174;28;20404;-75
2023/01/16 13:47:47;;;;;;;1.30;0.50;;;8.20;99.90;;;;;;5076847;28;20171;-75
2023/01/16 13:50:16;;;;;;;2.03;0.60;;;8.20;99.90;;;;;;5095813;28;20180;-75
2023/01/16 13:52:43;;;;;;;1.30;0.65;;;8.10;99.90;;;;;;5064449;28;20266;-75
2023/01/16 13:55:40;;;;;;;1.50;0.55;;;8.10;99.90;;;;;;5073570;28;20147;-76
2023/01/16 13:58:07;;;;;;;1.90;0.70;;;8.10;99.90;;;;;;5101585;28;20195;-76
2023/01/16 14:00:35;;;;;;;2.67;0.80;;;8.00;99.90;;;;;;5097068;28;20224;-76
2023/01/16 14:03:25;;;;;;;1.50;0.65;;;7.90;99.90;;;;;;5073916;28;20179;-76
2023/01/16 14:06:11;;;;;;;1.83;0.63;;;7.90;99.90;;;;;;5075001;28;20180;-76
2023/01/16 14:09:08;;;;;;;2.13;0.68;;;7.90;99.90;;;;;;5073480;28;20282;-76
2023/01/16 14:11:38;;;;;;;1.20;0.60;;;7.80;99.90;;;;;;5072693;28;20217;-76
2023/01/16 14:17:15;;;;;;;1.20;0.60;;;7.80;99.90;;;;;;5110765;28;20193;-76
2023/01/16 14:19:56;;;;;;;1.40;0.50;;;7.70;99.90;;;;;;5110403;28;20704;-77
2023/01/16 14:24:57;;;;;;;2.35;0.60;;;7.50;99.90;;;;;;5115196;28;20175;-76
2023/01/16 14:27:30;;;;;;;1.88;0.60;;;7.50;99.90;;;;;;5116615;28;20283;-76